Time;durP1;ratioP1;P1;durP2;ratioP2;P2;SDS_P1;SDS_P2;PMS_P1;PMS_P2;Temp;Humidity;BMP_temperature;BMP_pressure;BME280_temperature;BME280_humidity;BME280_pressure;Samples;Min_cycle;Max_cycle;Signal;HPM_P1;HPM_P2
2022/12/18 00:02:14;;;;;;;;;;;19.30;42.90;;;;;;5053904;28;20374;-64
2022/12/18 00:04:41;;;;;;;;;;;19.30;42.90;;;;;;5069258;28;19974;-64
2022/12/18 00:07:08;;;;;;;;;;;19.30;42.90;;;;;;5054424;28;19928;-64
2022/12/18 00:09:35;;;;;;;;;;;19.30;42.90;;;;;;5048844;28;19932;-64
2022/12/18 00:12:03;;;;;;;;;;;19.30;42.90;;;;;;5065275;28;19956;-65
2022/12/18 00:14:29;;;;;;;;;;;19.30;42.90;;;;;;5051714;28;19945;-65
2022/12/18 00:16:58;;;;;;;;;;;19.30;42.90;;;;;;5053208;28;19925;-67
2022/12/18 00:19:24;;;;;;;;;;;19.30;42.90;;;;;;5069515;28;19921;-64
2022/12/18 00:21:58;;;;;;;;;;;19.30;42.90;;;;;;5069183;28;19975;-66
2022/12/18 00:24:25;;;;;;;;;;;19.20;42.80;;;;;;5045249;28;19924;-64
2022/12/18 00:26:52;;;;;;;;;;;19.30;42.90;;;;;;5067871;28;19939;-65
2022/12/18 00:29:20;;;;;;;;;;;19.30;42.90;;;;;;5051382;28;19928;-64
2022/12/18 00:31:46;;;;;;;;;;;19.20;42.80;;;;;;5066329;28;19925;-66
2022/12/18 00:34:13;;;;;;;;;;;19.30;42.90;;;;;;5051883;28;20007;-65
2022/12/18 00:36:40;;;;;;;;;;;19.20;42.80;;;;;;5054053;28;20224;-65
2022/12/18 00:39:07;;;;;;;;;;;19.30;42.90;;;;;;5067554;28;19931;-66
2022/12/18 00:44:20;;;;;;;;;;;19.20;42.80;;;;;;5069753;28;19924;-64
2022/12/18 00:46:47;;;;;;;;;;;19.20;42.80;;;;;;5054185;28;19983;-65
2022/12/18 00:49:13;;;;;;;;;;;19.20;42.80;;;;;;5051940;28;19976;-65
2022/12/18 00:51:40;;;;;;;;;;;19.20;42.80;;;;;;5051468;28;20365;-67
2022/12/18 00:54:07;;;;;;;;;;;19.20;42.80;;;;;;5048897;28;19964;-65
2022/12/18 00:56:34;;;;;;;;;;;19.20;42.80;;;;;;5068037;28;19929;-64
2022/12/18 00:59:00;;;;;;;;;;;19.20;42.70;;;;;;5068268;28;20023;-62
2022/12/18 01:01:28;;;;;;;;;;;19.20;42.70;;;;;;5068762;28;19977;-62
2022/12/18 01:03:55;;;;;;;;;;;19.20;42.70;;;;;;5051634;28;19925;-62
2022/12/18 01:06:22;;;;;;;;;;;19.20;42.70;;;;;;5049665;28;19979;-63
2022/12/18 01:08:51;;;;;;;;;;;19.20;42.70;;;;;;5049270;28;19933;-64
2022/12/18 01:11:18;;;;;;;;;;;19.20;42.70;;;;;;5047327;28;19924;-64
2022/12/18 01:13:45;;;;;;;;;;;19.20;42.70;;;;;;5050577;28;19925;-64
2022/12/18 01:16:12;;;;;;;;;;;19.20;42.70;;;;;;5066017;28;19924;-62
2022/12/18 01:18:40;;;;;;;;;;;19.20;42.60;;;;;;5057397;28;19956;-63
2022/12/18 01:21:08;;;;;;;;;;;19.20;42.60;;;;;;5068138;28;19925;-63
2022/12/18 01:23:34;;;;;;;;;;;19.20;42.60;;;;;;5062160;28;19936;-62
2022/12/18 01:26:05;;;;;;;;;;;19.20;42.50;;;;;;5051717;28;19959;-62
2022/12/18 01:28:31;;;;;;;;;;;19.10;43.10;;;;;;5068131;28;19932;-64
2022/12/18 01:30:58;;;;;;;;;;;19.20;42.50;;;;;;5053463;28;19979;-63
2022/12/18 01:33:25;;;;;;;;;;;19.10;42.40;;;;;;5052240;28;19924;-63
2022/12/18 01:35:53;;;;;;;;;;;19.10;42.30;;;;;;5050864;28;19933;-65
2022/12/18 01:38:20;;;;;;;;;;;19.10;42.30;;;;;;5044299;28;19979;-63
2022/12/18 01:40:47;;;;;;;;;;;19.10;42.20;;;;;;5065802;28;20400;-62
2022/12/18 01:43:14;;;;;;;;;;;19.10;42.20;;;;;;5052907;28;20236;-64
2022/12/18 01:45:41;;;;;;;;;;;19.10;42.10;;;;;;5051642;28;20520;-63
2022/12/18 01:48:08;;;;;;;;;;;19.10;42.10;;;;;;5050003;28;19960;-65
2022/12/18 01:50:36;;;;;;;;;;;19.10;42.00;;;;;;5049074;28;19928;-63
2022/12/18 01:53:04;;;;;;;;;;;19.10;42.00;;;;;;5065156;28;19991;-64
2022/12/18 01:55:31;;;;;;;;;;;19.10;41.90;;;;;;5052061;28;19925;-64
2022/12/18 01:57:59;;;;;;;;;;;19.10;41.90;;;;;;5029904;28;19925;-64
2022/12/18 02:00:26;;;;;;;;;;;19.10;41.90;;;;;;5046235;28;19935;-63
2022/12/18 02:02:53;;;;;;;;;;;19.10;41.80;;;;;;5053742;28;20057;-63
2022/12/18 02:05:20;;;;;;;;;;;19.10;41.80;;;;;;5069671;28;20601;-63
2022/12/18 02:07:49;;;;;;;;;;;19.10;41.70;;;;;;5081110;28;20019;-65
2022/12/18 02:10:18;;;;;;;;;;;19.10;41.70;;;;;;5048071;28;19964;-65
2022/12/18 02:12:46;;;;;;;;;;;19.00;41.60;;;;;;5038547;28;19978;-62
2022/12/18 02:15:14;;;;;;;;;;;19.00;41.50;;;;;;5041035;28;19932;-63
2022/12/18 02:17:43;;;;;;;;;;;19.00;41.50;;;;;;5048147;28;19960;-65
2022/12/18 02:20:14;;;;;;;;;;;19.00;41.50;;;;;;5047076;28;19987;-63
2022/12/18 02:22:42;;;;;;;;;;;19.00;41.40;;;;;;5036375;28;20397;-64
2022/12/18 02:25:14;;;;;;;;;;;19.00;42.00;;;;;;5048972;28;20024;-63
2022/12/18 02:27:42;;;;;;;;;;;19.00;41.30;;;;;;5054393;28;19957;-65
2022/12/18 02:30:09;;;;;;;;;;;19.00;41.30;;;;;;5046406;28;19978;-64
2022/12/18 02:32:37;;;;;;;;;;;19.00;41.30;;;;;;5030596;28;19925;-63
2022/12/18 02:35:05;;;;;;;;;;;19.00;41.20;;;;;;5031974;28;19925;-63
2022/12/18 02:37:32;;;;;;;;;;;19.00;41.20;;;;;;5052621;28;19925;-62
2022/12/18 02:39:59;;;;;;;;;;;19.00;41.20;;;;;;5051661;28;19948;-63
2022/12/18 02:42:25;;;;;;;;;;;19.00;41.20;;;;;;5048295;28;19960;-64
2022/12/18 02:44:56;;;;;;;;;;;19.00;41.10;;;;;;5037301;28;19986;-63
2022/12/18 02:47:23;;;;;;;;;;;19.00;41.10;;;;;;5033723;28;19928;-62
2022/12/18 02:49:53;;;;;;;;;;;18.90;41.00;;;;;;5031733;28;20282;-63
2022/12/18 02:52:22;;;;;;;;;;;19.00;41.60;;;;;;5035649;28;19960;-62
2022/12/18 02:54:56;;;;;;;;;;;18.90;40.90;;;;;;5051619;28;19947;-63
2022/12/18 02:57:25;;;;;;;;;;;18.90;40.90;;;;;;5067711;28;19932;-63
2022/12/18 02:59:57;;;;;;;;;;;18.90;40.90;;;;;;5048215;28;19982;-62
2022/12/18 03:02:24;;;;;;;;;;;18.90;40.90;;;;;;5051229;28;19982;-63
2022/12/18 03:04:52;;;;;;;;;;;18.90;40.80;;;;;;5049973;28;19924;-62
2022/12/18 03:07:19;;;;;;;;;;;18.90;40.80;;;;;;5035980;28;19960;-63
2022/12/18 03:09:47;;;;;;;;;;;18.90;40.70;;;;;;5031962;28;20032;-62
2022/12/18 03:12:24;;;;;;;;;;;18.90;40.70;;;;;;5053168;28;19968;-63
2022/12/18 03:14:51;;;;;;;;;;;18.90;40.70;;;;;;5049022;28;19929;-62
2022/12/18 03:17:20;;;;;;;;;;;18.90;40.60;;;;;;5031775;28;19961;-64
2022/12/18 03:19:47;;;;;;;;;;;18.90;40.60;;;;;;5042949;28;19925;-63
2022/12/18 03:22:14;;;;;;;;;;;18.90;40.60;;;;;;5065892;28;20295;-66
2022/12/18 03:24:40;;;;;;;;;;;18.90;40.50;;;;;;5066630;28;19931;-63
2022/12/18 03:27:08;;;;;;;;;;;18.90;40.50;;;;;;5050395;28;19979;-63
2022/12/18 03:29:36;;;;;;;;;;;18.90;40.50;;;;;;5050189;28;19925;-63
2022/12/18 03:32:03;;;;;;;;;;;18.90;40.50;;;;;;5050190;28;20037;-63
2022/12/18 03:34:31;;;;;;;;;;;18.90;40.50;;;;;;5031981;28;20367;-63
2022/12/18 03:36:58;;;;;;;;;;;18.90;40.40;;;;;;5046082;28;19995;-63
2022/12/18 03:39:25;;;;;;;;;;;18.80;40.30;;;;;;5028791;28;19929;-63
2022/12/18 03:41:52;;;;;;;;;;;18.80;40.30;;;;;;5049309;28;20039;-64
2022/12/18 03:44:20;;;;;;;;;;;18.80;40.30;;;;;;5065037;28;19971;-65
2022/12/18 03:46:48;;;;;;;;;;;18.80;40.20;;;;;;5047958;28;19987;-62
2022/12/18 03:49:17;;;;;;;;;;;18.80;40.20;;;;;;5042946;28;19964;-64
2022/12/18 03:51:47;;;;;;;;;;;18.80;40.20;;;;;;5063193;28;19924;-65
2022/12/18 03:54:13;;;;;;;;;;;18.80;40.10;;;;;;5048874;28;20527;-64
2022/12/18 03:56:41;;;;;;;;;;;18.80;40.10;;;;;;5049981;28;19932;-65
2022/12/18 03:59:08;;;;;;;;;;;18.80;40.00;;;;;;5050073;28;19968;-65
2022/12/18 04:01:35;;;;;;;;;;;18.80;40.10;;;;;;5049818;28;19929;-64
2022/12/18 04:04:02;;;;;;;;;;;18.80;40.00;;;;;;5065658;28;19929;-64
2022/12/18 04:06:29;;;;;;;;;;;18.80;40.00;;;;;;5056135;28;20379;-66
2022/12/18 04:08:57;;;;;;;;;;;18.80;40.00;;;;;;5051440;28;19925;-64
2022/12/18 04:11:24;;;;;;;;;;;18.80;39.90;;;;;;5049489;28;19929;-66
2022/12/18 04:13:50;;;;;;;;;;;18.80;39.90;;;;;;5050706;28;19951;-64
2022/12/18 04:16:17;;;;;;;;;;;18.80;39.80;;;;;;5069962;28;19925;-64
2022/12/18 04:18:44;;;;;;;;;;;18.80;39.80;;;;;;5069363;28;19948;-65
2022/12/18 04:21:10;;;;;;;;;;;18.80;39.80;;;;;;5053136;28;19974;-65
2022/12/18 04:23:38;;;;;;;;;;;18.80;39.80;;;;;;5068105;28;19967;-65
2022/12/18 04:26:06;;;;;;;;;;;18.70;39.70;;;;;;5043102;28;19925;-65
2022/12/18 04:28:33;;;;;;;;;;;18.80;39.70;;;;;;5050070;28;19979;-64
2022/12/18 04:30:59;;;;;;;;;;;18.80;39.70;;;;;;5045643;28;19928;-63
2022/12/18 04:33:26;;;;;;;;;;;18.80;39.60;;;;;;5052700;28;19924;-65
2022/12/18 04:35:53;;;;;;;;;;;18.80;39.60;;;;;;5070417;28;19929;-64
2022/12/18 04:38:20;;;;;;;;;;;18.70;39.50;;;;;;5042677;28;19921;-64
2022/12/18 04:40:46;;;;;;;;;;;18.80;39.60;;;;;;5044291;28;19928;-65
2022/12/18 04:43:14;;;;;;;;;;;18.70;39.40;;;;;;5069057;28;19951;-65
2022/12/18 04:45:41;;;;;;;;;;;18.70;39.40;;;;;;5052215;28;20325;-65
2022/12/18 04:48:08;;;;;;;;;;;18.70;39.40;;;;;;5051875;28;20384;-67
2022/12/18 04:50:35;;;;;;;;;;;18.70;39.30;;;;;;5051795;28;19970;-65
2022/12/18 04:53:01;;;;;;;;;;;18.70;39.40;;;;;;5067906;28;19935;-65
2022/12/18 04:55:28;;;;;;;;;;;18.70;39.30;;;;;;5066047;28;19928;-63
2022/12/18 04:57:55;;;;;;;;;;;18.70;39.30;;;;;;5069575;28;19960;-65
2022/12/18 05:00:23;;;;;;;;;;;18.70;39.30;;;;;;5069502;28;19952;-65
2022/12/18 05:02:50;;;;;;;;;;;18.70;39.20;;;;;;5051995;28;19929;-65
2022/12/18 05:05:17;;;;;;;;;;;18.70;39.20;;;;;;5052637;28;20436;-65
2022/12/18 05:07:43;;;;;;;;;;;18.70;39.20;;;;;;5052375;28;19983;-65
2022/12/18 05:10:11;;;;;;;;;;;18.70;39.20;;;;;;5043022;28;19925;-64
2022/12/18 05:12:57;;;;;;;;;;;18.70;39.20;;;;;;5059274;28;19964;-64
2022/12/18 05:15:26;;;;;;;;;;;18.70;39.10;;;;;;5052837;28;20045;-66
2022/12/18 05:17:52;;;;;;;;;;;18.70;39.10;;;;;;5052862;28;20392;-65
2022/12/18 05:20:19;;;;;;;;;;;18.70;39.00;;;;;;5050945;28;19924;-65
2022/12/18 05:22:46;;;;;;;;;;;18.70;39.00;;;;;;5052767;28;19967;-65
2022/12/18 05:25:12;;;;;;;;;;;18.70;39.00;;;;;;5039103;28;19925;-64
2022/12/18 05:27:39;;;;;;;;;;;18.70;38.90;;;;;;5034691;28;20023;-65
2022/12/18 05:30:07;;;;;;;;;;;18.70;38.90;;;;;;5050452;28;19975;-66
2022/12/18 05:32:35;;;;;;;;;;;18.70;38.80;;;;;;5041618;28;19940;-65
2022/12/18 05:35:02;;;;;;;;;;;18.70;38.80;;;;;;5068598;28;19979;-65
2022/12/18 05:37:29;;;;;;;;;;;18.70;38.80;;;;;;5050315;28;19932;-65
2022/12/18 05:39:55;;;;;;;;;;;18.60;38.70;;;;;;5066988;28;19925;-65
2022/12/18 05:42:22;;;;;;;;;;;18.60;38.80;;;;;;5067497;28;19924;-66
2022/12/18 05:44:49;;;;;;;;;;;18.60;38.80;;;;;;5050906;28;19950;-65
2022/12/18 05:47:16;;;;;;;;;;;18.70;39.00;;;;;;5053244;28;19924;-63
2022/12/18 05:49:45;;;;;;;;;;;18.70;39.10;;;;;;5052034;28;19935;-63
2022/12/18 05:52:12;;;;;;;;;;;18.70;39.10;;;;;;5045239;28;20342;-65
2022/12/18 05:54:39;;;;;;;;;;;18.70;39.80;;;;;;5068164;28;19925;-65
2022/12/18 05:57:06;;;;;;;;;;;18.70;39.20;;;;;;5053317;28;19925;-64
2022/12/18 05:59:32;;;;;;;;;;;18.70;39.30;;;;;;5059224;28;19933;-66
2022/12/18 06:01:59;;;;;;;;;;;18.70;39.30;;;;;;5046724;28;19925;-65
2022/12/18 06:04:27;;;;;;;;;;;18.70;39.30;;;;;;5032553;28;19929;-65
2022/12/18 06:06:55;;;;;;;;;;;18.70;39.30;;;;;;5032664;28;19929;-66
2022/12/18 06:09:22;;;;;;;;;;;18.70;39.30;;;;;;5048317;28;20317;-65
2022/12/18 06:11:49;;;;;;;;;;;18.70;39.30;;;;;;5041802;28;19947;-64
2022/12/18 06:14:17;;;;;;;;;;;18.70;39.30;;;;;;5050935;28;19935;-65
2022/12/18 06:16:43;;;;;;;;;;;18.70;39.30;;;;;;5044053;28;19932;-65
2022/12/18 06:19:13;;;;;;;;;;;18.70;39.40;;;;;;5042463;28;19971;-65
2022/12/18 06:21:40;;;;;;;;;;;18.70;39.40;;;;;;5062114;28;19929;-65
2022/12/18 06:24:08;;;;;;;;;;;18.70;39.40;;;;;;5053064;28;19929;-65
2022/12/18 06:26:35;;;;;;;;;;;18.70;39.40;;;;;;5061153;28;19983;-64
2022/12/18 06:29:01;;;;;;;;;;;18.70;39.40;;;;;;5067173;28;19929;-65
2022/12/18 06:31:28;;;;;;;;;;;18.70;39.40;;;;;;5047687;28;19986;-63
2022/12/18 06:33:55;;;;;;;;;;;18.70;39.40;;;;;;5029144;28;19940;-64
2022/12/18 06:36:22;;;;;;;;;;;18.70;39.40;;;;;;5036308;28;19951;-66
2022/12/18 06:38:48;;;;;;;;;;;18.70;39.50;;;;;;5049156;28;20001;-65
2022/12/18 06:41:17;;;;;;;;;;;18.70;39.50;;;;;;5044132;28;19932;-65
2022/12/18 06:43:44;;;;;;;;;;;18.70;39.50;;;;;;5049310;28;19932;-65
2022/12/18 06:46:10;;;;;;;;;;;18.70;39.50;;;;;;5046668;28;19991;-64
2022/12/18 06:48:37;;;;;;;;;;;18.70;39.50;;;;;;5047239;28;20015;-64
2022/12/18 06:51:04;;;;;;;;;;;18.70;39.50;;;;;;5044512;28;19925;-63
2022/12/18 06:53:31;;;;;;;;;;;18.70;39.50;;;;;;5067416;28;19925;-65
2022/12/18 06:56:00;;;;;;;;;;;18.70;39.60;;;;;;5066752;28;19925;-65
2022/12/18 06:58:29;;;;;;;;;;;18.70;39.60;;;;;;5047135;28;19925;-65
2022/12/18 07:01:00;;;;;;;;;;;18.70;39.60;;;;;;5032587;28;19925;-65
2022/12/18 07:03:26;;;;;;;;;;;18.70;39.60;;;;;;5050079;28;19974;-65
2022/12/18 07:05:53;;;;;;;;;;;18.70;39.60;;;;;;5037680;28;20371;-65
2022/12/18 07:08:20;;;;;;;;;;;18.70;39.60;;;;;;5030322;28;19925;-64
2022/12/18 07:10:48;;;;;;;;;;;18.70;39.60;;;;;;5042367;28;19931;-64
2022/12/18 07:13:15;;;;;;;;;;;18.70;40.20;;;;;;5050265;28;20014;-64
2022/12/18 07:15:43;;;;;;;;;;;18.70;39.60;;;;;;5051432;28;19994;-64
2022/12/18 07:18:10;;;;;;;;;;;18.70;39.60;;;;;;5066178;28;19975;-64
2022/12/18 07:20:37;;;;;;;;;;;18.70;39.60;;;;;;5049721;28;20330;-63
2022/12/18 07:23:04;;;;;;;;;;;18.70;39.60;;;;;;5049946;28;19925;-64
2022/12/18 07:25:31;;;;;;;;;;;18.70;39.60;;;;;;5049128;28;19929;-65
2022/12/18 07:28:01;;;;;;;;;;;18.70;39.60;;;;;;5051820;28;19947;-64
2022/12/18 07:30:28;;;;;;;;;;;18.70;39.70;;;;;;5051071;28;20031;-65
2022/12/18 07:32:56;;;;;;;;;;;18.70;39.70;;;;;;5050332;28;19925;-64
2022/12/18 07:35:22;;;;;;;;;;;18.70;39.70;;;;;;5050095;28;19979;-64
2022/12/18 07:37:49;;;;;;;;;;;18.70;39.70;;;;;;5051030;28;19925;-63
2022/12/18 07:40:16;;;;;;;;;;;18.70;39.70;;;;;;5046462;28;19933;-64
2022/12/18 07:42:43;;;;;;;;;;;18.70;39.70;;;;;;5058962;28;19925;-67
2022/12/18 07:45:10;;;;;;;;;;;18.70;39.70;;;;;;5045799;28;20010;-65
2022/12/18 07:47:41;;;;;;;;;;;18.70;39.70;;;;;;5041513;28;19928;-64
2022/12/18 07:50:09;;;;;;;;;;;18.70;39.70;;;;;;5066553;28;19932;-64
2022/12/18 07:52:36;;;;;;;;;;;18.70;39.70;;;;;;5051552;28;19929;-65
2022/12/18 07:55:03;;;;;;;;;;;18.70;39.70;;;;;;5054079;28;19966;-63
2022/12/18 07:57:29;;;;;;;;;;;18.70;39.80;;;;;;5051372;28;19982;-64
2022/12/18 07:59:56;;;;;;;;;;;18.70;39.70;;;;;;5069804;28;19986;-64
2022/12/18 08:02:23;;;;;;;;;;;18.70;39.80;;;;;;5069490;28;19925;-65
2022/12/18 08:04:50;;;;;;;;;;;18.70;39.80;;;;;;5070020;28;19924;-63
2022/12/18 08:07:18;;;;;;;;;;;18.70;39.80;;;;;;5055107;28;19931;-64
2022/12/18 08:09:45;;;;;;;;;;;18.70;39.80;;;;;;5055062;28;20370;-64
2022/12/18 08:12:12;;;;;;;;;;;18.70;39.80;;;;;;5066912;28;19983;-65
2022/12/18 08:14:38;;;;;;;;;;;18.70;39.80;;;;;;5049575;28;19929;-64
2022/12/18 08:17:05;;;;;;;;;;;18.70;39.80;;;;;;5045322;28;19987;-65
2022/12/18 08:19:32;;;;;;;;;;;18.70;39.80;;;;;;5050339;28;19925;-64
2022/12/18 08:21:59;;;;;;;;;;;18.70;39.80;;;;;;5045439;28;19933;-65
2022/12/18 08:24:27;;;;;;;;;;;18.70;39.80;;;;;;5044194;28;19974;-65
2022/12/18 08:26:53;;;;;;;;;;;18.70;39.80;;;;;;5053499;28;19964;-65
2022/12/18 08:29:21;;;;;;;;;;;18.70;39.70;;;;;;5054344;28;19981;-66
2022/12/18 08:31:47;;;;;;;;;;;18.70;39.80;;;;;;5053466;28;19986;-64
2022/12/18 08:34:14;;;;;;;;;;;18.70;39.80;;;;;;5066250;28;19928;-64
2022/12/18 08:36:41;;;;;;;;;;;18.70;39.80;;;;;;5052488;28;19928;-66
2022/12/18 08:39:08;;;;;;;;;;;18.70;39.80;;;;;;5052274;28;19979;-64
2022/12/18 08:41:36;;;;;;;;;;;18.70;39.70;;;;;;5069110;28;19925;-64
2022/12/18 08:46:47;;;;;;;;;;;18.70;39.80;;;;;;5047477;28;19925;-67
2022/12/18 08:49:13;;;;;;;;;;;18.70;39.80;;;;;;5054470;28;19979;-65
2022/12/18 08:51:40;;;;;;;;;;;18.70;39.80;;;;;;5047728;28;19970;-64
2022/12/18 08:54:07;;;;;;;;;;;18.70;39.80;;;;;;5052985;28;19960;-65
2022/12/18 08:56:34;;;;;;;;;;;18.70;39.80;;;;;;5049351;28;19956;-65
2022/12/18 08:59:02;;;;;;;;;;;18.70;39.80;;;;;;5067742;28;19924;-65
2022/12/18 09:01:28;;;;;;;;;;;18.70;39.80;;;;;;5043335;28;19933;-64
2022/12/18 09:03:55;;;;;;;;;;;18.70;39.80;;;;;;5051005;28;20035;-65
2022/12/18 09:06:22;;;;;;;;;;;18.70;39.80;;;;;;5036275;28;19925;-65
2022/12/18 09:08:49;;;;;;;;;;;18.70;39.80;;;;;;5057673;28;19935;-69
2022/12/18 09:11:16;;;;;;;;;;;18.70;39.80;;;;;;5068215;28;19929;-66
2022/12/18 09:13:43;;;;;;;;;;;18.70;39.90;;;;;;5052317;28;19925;-64
2022/12/18 09:16:11;;;;;;;;;;;18.70;39.80;;;;;;5069082;28;19928;-65
2022/12/18 09:18:38;;;;;;;;;;;18.70;39.80;;;;;;5064102;28;19964;-64
2022/12/18 09:21:08;;;;;;;;;;;18.70;39.90;;;;;;5036799;28;19987;-66
2022/12/18 09:23:36;;;;;;;;;;;18.70;39.90;;;;;;5045399;28;19952;-66
2022/12/18 09:26:04;;;;;;;;;;;18.70;39.90;;;;;;5034136;28;19984;-64
2022/12/18 09:28:31;;;;;;;;;;;18.70;39.90;;;;;;5042083;28;19925;-64
2022/12/18 09:30:58;;;;;;;;;;;18.70;39.90;;;;;;5064936;28;19989;-66
2022/12/18 09:33:26;;;;;;;;;;;18.70;39.90;;;;;;5043480;28;19970;-66
2022/12/18 09:35:53;;;;;;;;;;;18.70;39.90;;;;;;5065942;28;20315;-65
2022/12/18 09:38:20;;;;;;;;;;;18.70;40.00;;;;;;5044299;28;19925;-65
2022/12/18 09:40:48;;;;;;;;;;;18.70;40.00;;;;;;5039685;28;19999;-66
2022/12/18 09:43:16;;;;;;;;;;;18.70;40.00;;;;;;5042602;28;19925;-67
2022/12/18 09:45:43;;;;;;;;;;;18.70;40.00;;;;;;5045351;28;19929;-67
2022/12/18 09:48:10;;;;;;;;;;;18.70;40.00;;;;;;5057113;28;19931;-65
2022/12/18 09:50:39;;;;;;;;;;;18.70;40.00;;;;;;5045382;28;19925;-66
2022/12/18 09:53:06;;;;;;;;;;;18.70;40.00;;;;;;5050153;28;21220;-65
2022/12/18 09:55:34;;;;;;;;;;;18.70;40.00;;;;;;5049322;28;19924;-66
2022/12/18 09:58:02;;;;;;;;;;;18.70;40.00;;;;;;5046211;28;19975;-66
2022/12/18 10:00:29;;;;;;;;;;;18.80;40.10;;;;;;5065628;28;19929;-68
2022/12/18 10:02:57;;;;;;;;;;;18.80;40.20;;;;;;5049073;28;20036;-66
2022/12/18 10:05:27;;;;;;;;;;;18.70;40.10;;;;;;5051986;28;19932;-65
2022/12/18 10:07:56;;;;;;;;;;;18.80;40.20;;;;;;5037086;28;19929;-65
2022/12/18 10:10:32;;;;;;;;;;;18.80;40.20;;;;;;5039357;28;19963;-64
2022/12/18 10:13:01;;;;;;;;;;;18.80;40.20;;;;;;5047609;28;19936;-64
2022/12/18 10:15:29;;;;;;;;;;;18.80;40.20;;;;;;5048750;28;20293;-64
2022/12/18 10:17:57;;;;;;;;;;;18.80;40.30;;;;;;5038304;28;19925;-65
2022/12/18 10:20:26;;;;;;;;;;;18.80;40.30;;;;;;5041353;28;19970;-65
2022/12/18 10:22:54;;;;;;;;;;;18.80;40.90;;;;;;5066536;28;19929;-65
2022/12/18 10:25:24;;;;;;;;;;;18.80;40.30;;;;;;5041879;28;19990;-65
2022/12/18 10:27:52;;;;;;;;;;;18.80;40.30;;;;;;5062727;28;19925;-64
2022/12/18 10:30:19;;;;;;;;;;;18.80;40.30;;;;;;5066950;28;19967;-64
2022/12/18 10:35:27;;;;;;;;;;;18.80;40.30;;;;;;5033169;28;20028;-65
2022/12/18 10:38:01;;;;;;;;;;;18.80;40.30;;;;;;5065309;28;19932;-67
2022/12/18 10:40:30;;;;;;;;;;;18.80;40.40;;;;;;5045762;28;19929;-66
2022/12/18 10:43:07;;;;;;;;;;;18.80;40.40;;;;;;5061972;28;20388;-65
2022/12/18 10:45:34;;;;;;;;;;;18.80;40.40;;;;;;5039487;28;19979;-65
2022/12/18 10:48:01;;;;;;;;;;;18.80;40.40;;;;;;5036228;28;20402;-65
2022/12/18 10:50:29;;;;;;;;;;;18.80;40.40;;;;;;5046803;28;19932;-65
2022/12/18 10:52:56;;;;;;;;;;;18.80;40.40;;;;;;5046206;28;20020;-64
2022/12/18 10:55:23;;;;;;;;;;;18.80;40.40;;;;;;5061019;28;20330;-64
2022/12/18 10:57:51;;;;;;;;;;;18.80;40.40;;;;;;5041896;28;19974;-65
2022/12/18 11:00:22;;;;;;;;;;;18.80;40.40;;;;;;5037108;28;19925;-66
2022/12/18 11:02:49;;;;;;;;;;;18.80;40.40;;;;;;5044072;28;19971;-61
2022/12/18 11:05:26;;;;;;;;;;;18.80;40.40;;;;;;5065196;28;19925;-61
2022/12/18 11:07:54;;;;;;;;;;;18.80;39.40;;;;;;5050106;28;20366;-61
2022/12/18 11:10:21;;;;;;;;;;;18.80;38.90;;;;;;5050280;28;19932;-62
2022/12/18 11:12:48;;;;;;;;;;;18.80;38.40;;;;;;5042700;28;19925;-61
2022/12/18 11:15:17;;;;;;;;;;;18.80;37.90;;;;;;5051247;28;19967;-62
2022/12/18 11:17:44;;;;;;;;;;;18.70;37.50;;;;;;5061953;28;19936;-62
2022/12/18 11:20:20;;;;;;;;;;;18.70;37.30;;;;;;5066499;28;19964;-62
2022/12/18 11:22:51;;;;;;;;;;;18.70;37.10;;;;;;5051372;28;19925;-62
2022/12/18 11:25:18;;;;;;;;;;;18.70;37.00;;;;;;5051798;28;20383;-61
2022/12/18 11:27:48;;;;;;;;;;;18.60;36.80;;;;;;5055091;28;19986;-61
2022/12/18 11:30:21;;;;;;;;;;;18.60;36.70;;;;;;5048783;28;20365;-61
2022/12/18 11:32:48;;;;;;;;;;;18.60;36.60;;;;;;5049963;28;19935;-60
2022/12/18 11:35:16;;;;;;;;;;;18.60;36.50;;;;;;5056436;28;19929;-60
2022/12/18 11:37:43;;;;;;;;;;;18.60;36.70;;;;;;5053520;28;19943;-60
2022/12/18 11:40:12;;;;;;;;;;;18.60;36.70;;;;;;5054504;28;19932;-61
2022/12/18 11:42:39;;;;;;;;;;;18.60;36.80;;;;;;5055038;28;19967;-60
2022/12/18 11:45:09;;;;;;;;;;;18.60;36.80;;;;;;5041286;28;19933;-60
2022/12/18 11:47:38;;;;;;;;;;;18.60;36.90;;;;;;5055273;28;19987;-61
2022/12/18 11:50:11;;;;;;;;;;;18.50;36.90;;;;;;5052430;28;19980;-61
2022/12/18 11:52:38;;;;;;;;;;;18.50;36.90;;;;;;5053190;28;19974;-61
2022/12/18 11:55:06;;;;;;;;;;;18.50;37.00;;;;;;5054373;28;20333;-61
2022/12/18 11:57:34;;;;;;;;;;;18.50;37.00;;;;;;5057048;28;19929;-61
2022/12/18 12:00:03;;;;;;;;;;;18.50;37.00;;;;;;5051713;28;19946;-61
2022/12/18 12:02:35;;;;;;;;;;;18.50;37.00;;;;;;5059789;28;19982;-62
2022/12/18 12:05:17;;;;;;;;;;;18.50;36.90;;;;;;5070647;28;19960;-62
2022/12/18 12:07:46;;;;;;;;;;;18.50;36.50;;;;;;5039267;28;19925;-62
2022/12/18 12:10:20;;;;;;;;;;;18.50;36.10;;;;;;5061920;28;19951;-62
2022/12/18 12:12:53;;;;;;;;;;;18.50;35.80;;;;;;5055692;28;19925;-62
2022/12/18 12:15:24;;;;;;;;;;;18.50;35.80;;;;;;5054187;28;19940;-70
2022/12/18 12:17:51;;;;;;;;;;;18.50;35.80;;;;;;5054417;28;19929;-71
2022/12/18 12:20:20;;;;;;;;;;;18.50;35.50;;;;;;5052815;28;20016;-69
2022/12/18 12:22:49;;;;;;;;;;;18.40;35.10;;;;;;5058519;28;19925;-71
2022/12/18 12:25:19;;;;;;;;;;;18.40;34.90;;;;;;5049697;28;19925;-69
2022/12/18 12:27:47;;;;;;;;;;;18.40;34.70;;;;;;5067105;28;19979;-71
2022/12/18 12:30:17;;;;;;;;;;;18.40;34.50;;;;;;5040761;28;19925;-72
2022/12/18 12:32:46;;;;;;;;;;;18.40;33.30;;;;;;5051157;28;19928;-71
2022/12/18 12:35:17;;;;;;;;;;;18.30;31.20;;;;;;5068856;28;19976;-71
2022/12/18 12:37:47;;;;;;;;;;;18.20;30.40;;;;;;5060906;28;19951;-72
2022/12/18 12:40:16;;;;;;;;;;;18.00;30.10;;;;;;5050321;28;19987;-70
2022/12/18 12:45:29;;;;;;;;;;;17.70;29.30;;;;;;5050263;28;19932;-71
2022/12/18 12:47:55;;;;;;;;;;;17.60;29.50;;;;;;5057782;28;20322;-70
2022/12/18 12:50:22;;;;;;;;;;;17.40;29.40;;;;;;5047394;28;19925;-72
2022/12/18 12:52:50;;;;;;;;;;;17.30;29.10;;;;;;5067349;28;19925;-73
2022/12/18 12:55:19;;;;;;;;;;;17.10;28.90;;;;;;5067935;28;19929;-72
2022/12/18 12:57:47;;;;;;;;;;;17.00;28.40;;;;;;5044409;28;19947;-63
2022/12/18 13:00:14;;;;;;;;;;;16.80;28.00;;;;;;5058702;28;19925;-63
2022/12/18 13:02:43;;;;;;;;;;;16.80;28.30;;;;;;5057001;28;20367;-63
2022/12/18 13:05:11;;;;;;;;;;;16.70;29.00;;;;;;5064225;28;19925;-63
2022/12/18 13:07:38;;;;;;;;;;;16.60;29.60;;;;;;5041373;28;20370;-63
2022/12/18 13:10:29;;;;;;;;;;;16.60;30.30;;;;;;5054807;28;19933;-62
2022/12/18 13:12:56;;;;;;;;;;;16.60;30.80;;;;;;5041834;28;19932;-61
2022/12/18 13:15:23;;;;;;;;;;;16.70;31.90;;;;;;5047996;28;19991;-61
2022/12/18 13:17:50;;;;;;;;;;;16.70;32.00;;;;;;5058264;28;19933;-61
2022/12/18 13:20:17;;;;;;;;;;;16.70;32.20;;;;;;5044996;28;19999;-61
2022/12/18 13:22:44;;;;;;;;;;;16.80;32.30;;;;;;5038764;28;19925;-61
2022/12/18 13:25:30;;;;;;;;;;;16.80;32.40;;;;;;5064965;28;19932;-61
2022/12/18 13:28:00;;;;;;;;;;;16.90;32.50;;;;;;5038619;28;19924;-60
2022/12/18 13:30:46;;;;;;;;;;;16.90;32.70;;;;;;5050926;28;19971;-61
2022/12/18 13:33:31;;;;;;;;;;;17.00;32.80;;;;;;5031387;28;20441;-61
2022/12/18 13:36:01;;;;;;;;;;;17.00;32.60;;;;;;5049576;28;19929;-61
2022/12/18 13:38:33;;;;;;;;;;;17.00;32.40;;;;;;5044943;28;19924;-61
2022/12/18 13:41:00;;;;;;;;;;;17.10;32.30;;;;;;5042899;28;19928;-61
2022/12/18 13:43:44;;;;;;;;;;;17.10;32.30;;;;;;5043964;28;19924;-60
2022/12/18 13:46:18;;;;;;;;;;;17.10;32.30;;;;;;5060747;28;19925;-61
2022/12/18 13:48:50;;;;;;;;;;;17.10;32.30;;;;;;5063592;28;19932;-61
2022/12/18 13:51:17;;;;;;;;;;;17.10;32.40;;;;;;5056785;28;19979;-61
2022/12/18 13:53:45;;;;;;;;;;;17.10;32.40;;;;;;5051012;28;19970;-60
2022/12/18 13:56:16;;;;;;;;;;;17.20;32.40;;;;;;5066930;28;19929;-61
2022/12/18 13:58:44;;;;;;;;;;;17.20;32.40;;;;;;5060491;28;19936;-70
2022/12/18 14:01:17;;;;;;;;;;;17.20;32.40;;;;;;5045738;28;19924;-70
2022/12/18 14:03:43;;;;;;;;;;;17.20;32.60;;;;;;5048042;28;19925;-72
2022/12/18 14:06:12;;;;;;;;;;;17.20;33.30;;;;;;5037676;28;19925;-71
2022/12/18 14:08:39;;;;;;;;;;;17.30;33.90;;;;;;5050737;28;19924;-70
2022/12/18 14:11:06;;;;;;;;;;;17.30;34.40;;;;;;5052127;28;20346;-70
2022/12/18 14:13:34;;;;;;;;;;;17.30;34.80;;;;;;5037609;28;20019;-69
2022/12/18 14:16:03;;;;;;;;;;;17.40;35.10;;;;;;5044298;28;20016;-70
2022/12/18 14:18:31;;;;;;;;;;;17.40;35.20;;;;;;5065897;28;19936;-70
2022/12/18 14:20:58;;;;;;;;;;;17.50;35.40;;;;;;5047357;28;20318;-71
2022/12/18 14:23:29;;;;;;;;;;;17.50;35.50;;;;;;5064481;28;19979;-70
2022/12/18 14:25:56;;;;;;;;;;;17.60;35.70;;;;;;5060275;28;19982;-70
2022/12/18 14:28:22;;;;;;;;;;;17.50;35.70;;;;;;5051129;28;19982;-70
2022/12/18 14:30:49;;;;;;;;;;;17.60;35.80;;;;;;5066905;28;19931;-69
2022/12/18 14:33:18;;;;;;;;;;;17.60;35.90;;;;;;5051682;28;19955;-69